sensor_id;sensor_type;location;lat;lon;timestamp;P1;durP1;ratioP1;P2;durP2;ratioP2
20478;SDS011;10398;52.490;13.434;2023-05-10T00:01:37;6.63;;;3.07;;
20478;SDS011;10398;52.490;13.434;2023-05-10T00:04:03;5.43;;;2.77;;
20478;SDS011;10398;52.490;13.434;2023-05-10T00:06:29;6.10;;;3.30;;
20478;SDS011;10398;52.490;13.434;2023-05-10T00:08:55;9.20;;;3.40;;
20478;SDS011;10398;52.490;13.434;2023-05-10T00:11:20;5.60;;;2.93;;
20478;SDS011;10398;52.490;13.434;2023-05-10T00:13:46;6.27;;;3.63;;
20478;SDS011;10398;52.490;13.434;2023-05-10T00:16:12;7.13;;;3.17;;
20478;SDS011;10398;52.490;13.434;2023-05-10T00:18:38;6.00;;;3.07;;
20478;SDS011;10398;52.490;13.434;2023-05-10T00:21:04;7.37;;;3.40;;
20478;SDS011;10398;52.490;13.434;2023-05-10T00:23:31;5.93;;;3.50;;
20478;SDS011;10398;52.490;13.434;2023-05-10T00:25:56;7.80;;;3.40;;
20478;SDS011;10398;52.490;13.434;2023-05-10T00:28:22;8.37;;;3.30;;
20478;SDS011;10398;52.490;13.434;2023-05-10T00:30:48;7.03;;;3.23;;
20478;SDS011;10398;52.490;13.434;2023-05-10T00:33:13;7.27;;;3.50;;
20478;SDS011;10398;52.490;13.434;2023-05-10T00:35:39;7.03;;;3.00;;
20478;SDS011;10398;52.490;13.434;2023-05-10T00:38:05;7.03;;;3.93;;
20478;SDS011;10398;52.490;13.434;2023-05-10T00:40:31;7.43;;;3.33;;
20478;SDS011;10398;52.490;13.434;2023-05-10T00:42:57;6.70;;;3.47;;
20478;SDS011;10398;52.490;13.434;2023-05-10T00:45:23;6.37;;;3.37;;
20478;SDS011;10398;52.490;13.434;2023-05-10T00:47:49;9.10;;;3.77;;
20478;SDS011;10398;52.490;13.434;2023-05-10T00:50:19;5.97;;;3.57;;
20478;SDS011;10398;52.490;13.434;2023-05-10T00:52:46;6.13;;;3.17;;
20478;SDS011;10398;52.490;13.434;2023-05-10T00:55:11;6.67;;;3.73;;
20478;SDS011;10398;52.490;13.434;2023-05-10T00:57:37;7.67;;;3.37;;
20478;SDS011;10398;52.490;13.434;2023-05-10T01:00:04;9.70;;;3.40;;
20478;SDS011;10398;52.490;13.434;2023-05-10T01:02:30;7.13;;;3.40;;
20478;SDS011;10398;52.490;13.434;2023-05-10T01:04:55;5.80;;;3.70;;
20478;SDS011;10398;52.490;13.434;2023-05-10T01:07:21;6.90;;;3.30;;
20478;SDS011;10398;52.490;13.434;2023-05-10T01:09:47;6.40;;;3.17;;
20478;SDS011;10398;52.490;13.434;2023-05-10T01:12:12;7.47;;;3.30;;
20478;SDS011;10398;52.490;13.434;2023-05-10T01:14:38;6.97;;;3.20;;
20478;SDS011;10398;52.490;13.434;2023-05-10T01:17:05;8.33;;;3.10;;
20478;SDS011;10398;52.490;13.434;2023-05-10T01:19:32;7.07;;;3.10;;
20478;SDS011;10398;52.490;13.434;2023-05-10T01:35:45;5.07;;;3.20;;
20478;SDS011;10398;52.490;13.434;2023-05-10T01:38:22;7.87;;;3.37;;
20478;SDS011;10398;52.490;13.434;2023-05-10T01:43:57;6.40;;;3.30;;
20478;SDS011;10398;52.490;13.434;2023-05-10T01:46:33;6.13;;;3.30;;
20478;SDS011;10398;52.490;13.434;2023-05-10T01:49:11;4.67;;;2.50;;
20478;SDS011;10398;52.490;13.434;2023-05-10T01:51:47;6.60;;;3.10;;
20478;SDS011;10398;52.490;13.434;2023-05-10T01:54:17;8.93;;;3.40;;
20478;SDS011;10398;52.490;13.434;2023-05-10T01:56:45;6.47;;;3.20;;
20478;SDS011;10398;52.490;13.434;2023-05-10T01:59:16;5.57;;;2.73;;
20478;SDS011;10398;52.490;13.434;2023-05-10T02:01:44;8.63;;;3.10;;
20478;SDS011;10398;52.490;13.434;2023-05-10T02:04:12;4.97;;;2.93;;
20478;SDS011;10398;52.490;13.434;2023-05-10T02:06:41;6.40;;;3.10;;
20478;SDS011;10398;52.490;13.434;2023-05-10T02:09:08;7.43;;;2.80;;
20478;SDS011;10398;52.490;13.434;2023-05-10T02:11:37;7.07;;;3.10;;
20478;SDS011;10398;52.490;13.434;2023-05-10T02:14:05;6.30;;;3.10;;
20478;SDS011;10398;52.490;13.434;2023-05-10T02:16:34;6.63;;;3.27;;
20478;SDS011;10398;52.490;13.434;2023-05-10T02:19:01;7.03;;;3.33;;
20478;SDS011;10398;52.490;13.434;2023-05-10T02:21:28;5.23;;;3.20;;
20478;SDS011;10398;52.490;13.434;2023-05-10T02:23:55;5.07;;;3.10;;
20478;SDS011;10398;52.490;13.434;2023-05-10T02:26:23;7.37;;;3.73;;
20478;SDS011;10398;52.490;13.434;2023-05-10T02:28:50;8.03;;;3.20;;
20478;SDS011;10398;52.490;13.434;2023-05-10T02:31:16;9.63;;;3.77;;
20478;SDS011;10398;52.490;13.434;2023-05-10T02:33:43;7.40;;;3.83;;
20478;SDS011;10398;52.490;13.434;2023-05-10T02:36:10;8.50;;;3.43;;
20478;SDS011;10398;52.490;13.434;2023-05-10T02:38:38;4.70;;;2.93;;
20478;SDS011;10398;52.490;13.434;2023-05-10T02:41:04;5.23;;;2.80;;
20478;SDS011;10398;52.490;13.434;2023-05-10T02:43:32;5.60;;;3.47;;
20478;SDS011;10398;52.490;13.434;2023-05-10T02:45:58;5.10;;;2.77;;
20478;SDS011;10398;52.490;13.434;2023-05-10T02:48:24;4.23;;;2.63;;
20478;SDS011;10398;52.490;13.434;2023-05-10T02:50:50;5.40;;;2.97;;
20478;SDS011;10398;52.490;13.434;2023-05-10T02:53:27;3.43;;;2.60;;
20478;SDS011;10398;52.490;13.434;2023-05-10T02:55:57;5.17;;;2.80;;
20478;SDS011;10398;52.490;13.434;2023-05-10T02:58:25;6.47;;;3.00;;
20478;SDS011;10398;52.490;13.434;2023-05-10T03:00:51;7.50;;;2.90;;
20478;SDS011;10398;52.490;13.434;2023-05-10T03:03:17;8.73;;;3.30;;
20478;SDS011;10398;52.490;13.434;2023-05-10T03:05:43;7.07;;;2.90;;
20478;SDS011;10398;52.490;13.434;2023-05-10T03:08:08;6.10;;;3.07;;
20478;SDS011;10398;52.490;13.434;2023-05-10T03:10:47;7.17;;;3.20;;
20478;SDS011;10398;52.490;13.434;2023-05-10T03:13:44;7.53;;;2.93;;
20478;SDS011;10398;52.490;13.434;2023-05-10T03:16:34;5.30;;;2.63;;
20478;SDS011;10398;52.490;13.434;2023-05-10T03:19:22;6.17;;;3.10;;
20478;SDS011;10398;52.490;13.434;2023-05-10T03:21:52;8.07;;;2.90;;
20478;SDS011;10398;52.490;13.434;2023-05-10T03:24:20;5.97;;;2.80;;
20478;SDS011;10398;52.490;13.434;2023-05-10T03:26:48;5.20;;;2.87;;
20478;SDS011;10398;52.490;13.434;2023-05-10T03:29:16;4.93;;;2.80;;
20478;SDS011;10398;52.490;13.434;2023-05-10T03:31:43;7.53;;;3.00;;
20478;SDS011;10398;52.490;13.434;2023-05-10T03:34:09;5.40;;;3.03;;
20478;SDS011;10398;52.490;13.434;2023-05-10T03:36:34;6.33;;;2.67;;
20478;SDS011;10398;52.490;13.434;2023-05-10T03:39:01;8.37;;;3.00;;
20478;SDS011;10398;52.490;13.434;2023-05-10T03:41:27;5.60;;;3.00;;
20478;SDS011;10398;52.490;13.434;2023-05-10T03:43:53;12.60;;;4.27;;
20478;SDS011;10398;52.490;13.434;2023-05-10T03:46:19;10.07;;;4.33;;
20478;SDS011;10398;52.490;13.434;2023-05-10T03:48:44;8.60;;;3.53;;
20478;SDS011;10398;52.490;13.434;2023-05-10T03:51:10;6.93;;;3.10;;
20478;SDS011;10398;52.490;13.434;2023-05-10T03:53:36;8.90;;;2.97;;
20478;SDS011;10398;52.490;13.434;2023-05-10T03:56:01;10.97;;;3.87;;
20478;SDS011;10398;52.490;13.434;2023-05-10T03:58:27;18.40;;;4.90;;
20478;SDS011;10398;52.490;13.434;2023-05-10T04:00:52;7.67;;;4.10;;
20478;SDS011;10398;52.490;13.434;2023-05-10T04:03:18;20.03;;;8.17;;
20478;SDS011;10398;52.490;13.434;2023-05-10T04:05:45;6.87;;;2.80;;
20478;SDS011;10398;52.490;13.434;2023-05-10T04:08:10;6.77;;;2.80;;
20478;SDS011;10398;52.490;13.434;2023-05-10T04:10:36;6.00;;;2.83;;
20478;SDS011;10398;52.490;13.434;2023-05-10T04:13:01;7.87;;;2.77;;
20478;SDS011;10398;52.490;13.434;2023-05-10T04:15:27;4.67;;;2.13;;
20478;SDS011;10398;52.490;13.434;2023-05-10T04:17:53;6.67;;;3.07;;
20478;SDS011;10398;52.490;13.434;2023-05-10T04:20:18;8.37;;;2.80;;
20478;SDS011;10398;52.490;13.434;2023-05-10T04:22:44;7.20;;;2.70;;
20478;SDS011;10398;52.490;13.434;2023-05-10T04:25:10;9.60;;;3.03;;
20478;SDS011;10398;52.490;13.434;2023-05-10T04:27:36;6.00;;;2.43;;
20478;SDS011;10398;52.490;13.434;2023-05-10T04:30:01;8.33;;;3.13;;
20478;SDS011;10398;52.490;13.434;2023-05-10T04:32:27;5.30;;;2.20;;
20478;SDS011;10398;52.490;13.434;2023-05-10T04:34:53;6.43;;;2.50;;
20478;SDS011;10398;52.490;13.434;2023-05-10T04:37:18;5.00;;;2.50;;
20478;SDS011;10398;52.490;13.434;2023-05-10T04:39:46;14.90;;;2.97;;
20478;SDS011;10398;52.490;13.434;2023-05-10T04:42:11;7.63;;;2.90;;
20478;SDS011;10398;52.490;13.434;2023-05-10T04:44:39;5.07;;;2.20;;
20478;SDS011;10398;52.490;13.434;2023-05-10T04:47:05;7.20;;;2.83;;
20478;SDS011;10398;52.490;13.434;2023-05-10T04:49:31;5.13;;;2.63;;
20478;SDS011;10398;52.490;13.434;2023-05-10T04:51:57;7.80;;;2.97;;
20478;SDS011;10398;52.490;13.434;2023-05-10T04:54:23;5.47;;;2.50;;
20478;SDS011;10398;52.490;13.434;2023-05-10T04:56:49;5.03;;;2.47;;
20478;SDS011;10398;52.490;13.434;2023-05-10T04:59:14;8.60;;;2.83;;
20478;SDS011;10398;52.490;13.434;2023-05-10T05:01:40;9.63;;;3.07;;
20478;SDS011;10398;52.490;13.434;2023-05-10T05:04:05;10.07;;;2.73;;
20478;SDS011;10398;52.490;13.434;2023-05-10T05:06:31;9.80;;;2.40;;
20478;SDS011;10398;52.490;13.434;2023-05-10T05:08:57;6.43;;;2.73;;
20478;SDS011;10398;52.490;13.434;2023-05-10T05:11:23;10.87;;;2.80;;
20478;SDS011;10398;52.490;13.434;2023-05-10T05:13:48;4.70;;;2.50;;
20478;SDS011;10398;52.490;13.434;2023-05-10T05:16:14;5.67;;;2.70;;
20478;SDS011;10398;52.490;13.434;2023-05-10T05:18:40;4.20;;;2.27;;
20478;SDS011;10398;52.490;13.434;2023-05-10T05:21:15;6.47;;;2.37;;
20478;SDS011;10398;52.490;13.434;2023-05-10T05:23:42;5.23;;;2.37;;
20478;SDS011;10398;52.490;13.434;2023-05-10T05:26:08;7.33;;;2.60;;
20478;SDS011;10398;52.490;13.434;2023-05-10T05:28:34;7.10;;;2.50;;
20478;SDS011;10398;52.490;13.434;2023-05-10T05:31:02;4.87;;;2.20;;
20478;SDS011;10398;52.490;13.434;2023-05-10T05:33:28;3.87;;;2.17;;
20478;SDS011;10398;52.490;13.434;2023-05-10T05:35:55;5.87;;;2.57;;
20478;SDS011;10398;52.490;13.434;2023-05-10T05:38:21;5.13;;;2.47;;
20478;SDS011;10398;52.490;13.434;2023-05-10T05:40:47;3.93;;;2.20;;
20478;SDS011;10398;52.490;13.434;2023-05-10T05:43:13;3.93;;;2.20;;
20478;SDS011;10398;52.490;13.434;2023-05-10T05:45:38;6.00;;;2.47;;
20478;SDS011;10398;52.490;13.434;2023-05-10T05:48:04;4.63;;;1.60;;
20478;SDS011;10398;52.490;13.434;2023-05-10T05:50:30;4.67;;;2.27;;
20478;SDS011;10398;52.490;13.434;2023-05-10T05:52:56;7.03;;;2.53;;
20478;SDS011;10398;52.490;13.434;2023-05-10T05:55:22;4.97;;;2.17;;
20478;SDS011;10398;52.490;13.434;2023-05-10T05:57:49;3.43;;;1.90;;
20478;SDS011;10398;52.490;13.434;2023-05-10T06:00:15;3.77;;;1.93;;
20478;SDS011;10398;52.490;13.434;2023-05-10T06:02:41;3.10;;;1.60;;
20478;SDS011;10398;52.490;13.434;2023-05-10T06:05:06;4.63;;;2.00;;
20478;SDS011;10398;52.490;13.434;2023-05-10T06:07:33;4.07;;;2.00;;
20478;SDS011;10398;52.490;13.434;2023-05-10T06:09:58;4.40;;;1.83;;
20478;SDS011;10398;52.490;13.434;2023-05-10T06:12:24;2.23;;;1.53;;
20478;SDS011;10398;52.490;13.434;2023-05-10T06:14:50;6.00;;;1.97;;
20478;SDS011;10398;52.490;13.434;2023-05-10T06:17:16;4.40;;;1.90;;
20478;SDS011;10398;52.490;13.434;2023-05-10T06:19:41;5.53;;;1.93;;
20478;SDS011;10398;52.490;13.434;2023-05-10T06:22:07;3.03;;;1.53;;
20478;SDS011;10398;52.490;13.434;2023-05-10T06:24:32;7.87;;;1.90;;
20478;SDS011;10398;52.490;13.434;2023-05-10T06:26:58;6.97;;;2.03;;
20478;SDS011;10398;52.490;13.434;2023-05-10T06:29:25;8.70;;;1.90;;
20478;SDS011;10398;52.490;13.434;2023-05-10T06:31:51;4.23;;;1.80;;
20478;SDS011;10398;52.490;13.434;2023-05-10T06:34:16;5.00;;;2.10;;
20478;SDS011;10398;52.490;13.434;2023-05-10T06:36:42;4.43;;;1.90;;
20478;SDS011;10398;52.490;13.434;2023-05-10T06:39:08;5.90;;;1.73;;
20478;SDS011;10398;52.490;13.434;2023-05-10T06:41:33;15.30;;;2.03;;
20478;SDS011;10398;52.490;13.434;2023-05-10T06:43:59;4.10;;;1.70;;
20478;SDS011;10398;52.490;13.434;2023-05-10T06:46:25;7.83;;;1.80;;
20478;SDS011;10398;52.490;13.434;2023-05-10T06:48:50;3.43;;;1.80;;
20478;SDS011;10398;52.490;13.434;2023-05-10T06:51:16;2.93;;;1.70;;
20478;SDS011;10398;52.490;13.434;2023-05-10T06:53:42;3.77;;;1.77;;
20478;SDS011;10398;52.490;13.434;2023-05-10T06:56:08;4.13;;;1.83;;
20478;SDS011;10398;52.490;13.434;2023-05-10T06:58:33;2.30;;;1.37;;
20478;SDS011;10398;52.490;13.434;2023-05-10T07:01:03;3.60;;;1.70;;
20478;SDS011;10398;52.490;13.434;2023-05-10T07:03:29;2.93;;;1.67;;
20478;SDS011;10398;52.490;13.434;2023-05-10T07:05:59;6.00;;;1.73;;
20478;SDS011;10398;52.490;13.434;2023-05-10T07:08:28;5.87;;;1.80;;
20478;SDS011;10398;52.490;13.434;2023-05-10T07:10:58;4.10;;;1.83;;
20478;SDS011;10398;52.490;13.434;2023-05-10T07:13:28;5.10;;;1.80;;
20478;SDS011;10398;52.490;13.434;2023-05-10T07:15:55;3.57;;;1.53;;
20478;SDS011;10398;52.490;13.434;2023-05-10T07:18:21;3.87;;;1.63;;
20478;SDS011;10398;52.490;13.434;2023-05-10T07:20:46;2.50;;;1.60;;
20478;SDS011;10398;52.490;13.434;2023-05-10T07:23:12;5.33;;;1.50;;
20478;SDS011;10398;52.490;13.434;2023-05-10T07:25:38;2.87;;;1.50;;
20478;SDS011;10398;52.490;13.434;2023-05-10T07:28:03;9.70;;;1.83;;
20478;SDS011;10398;52.490;13.434;2023-05-10T07:30:29;5.13;;;2.13;;
20478;SDS011;10398;52.490;13.434;2023-05-10T07:32:55;3.67;;;1.67;;
20478;SDS011;10398;52.490;13.434;2023-05-10T07:35:21;5.63;;;1.87;;
20478;SDS011;10398;52.490;13.434;2023-05-10T07:37:47;2.70;;;1.70;;
20478;SDS011;10398;52.490;13.434;2023-05-10T07:40:12;4.00;;;1.50;;
20478;SDS011;10398;52.490;13.434;2023-05-10T07:42:38;9.10;;;1.50;;
20478;SDS011;10398;52.490;13.434;2023-05-10T07:45:04;3.17;;;1.50;;
20478;SDS011;10398;52.490;13.434;2023-05-10T07:47:30;4.30;;;1.80;;
20478;SDS011;10398;52.490;13.434;2023-05-10T07:49:55;2.47;;;1.43;;
20478;SDS011;10398;52.490;13.434;2023-05-10T07:52:21;5.37;;;1.70;;
20478;SDS011;10398;52.490;13.434;2023-05-10T07:54:47;3.47;;;1.67;;
20478;SDS011;10398;52.490;13.434;2023-05-10T07:57:12;3.00;;;1.60;;
20478;SDS011;10398;52.490;13.434;2023-05-10T07:59:40;3.13;;;1.60;;
20478;SDS011;10398;52.490;13.434;2023-05-10T08:02:06;3.03;;;1.43;;
20478;SDS011;10398;52.490;13.434;2023-05-10T08:04:32;2.77;;;1.60;;
20478;SDS011;10398;52.490;13.434;2023-05-10T08:06:58;3.50;;;1.70;;
20478;SDS011;10398;52.490;13.434;2023-05-10T08:09:23;10.03;;;1.57;;
20478;SDS011;10398;52.490;13.434;2023-05-10T08:11:49;3.87;;;1.77;;
20478;SDS011;10398;52.490;13.434;2023-05-10T08:14:15;2.97;;;1.70;;
20478;SDS011;10398;52.490;13.434;2023-05-10T08:16:41;2.97;;;1.77;;
20478;SDS011;10398;52.490;13.434;2023-05-10T08:19:07;4.80;;;1.90;;
20478;SDS011;10398;52.490;13.434;2023-05-10T08:21:33;3.43;;;1.80;;
20478;SDS011;10398;52.490;13.434;2023-05-10T08:23:58;4.50;;;1.63;;
20478;SDS011;10398;52.490;13.434;2023-05-10T08:26:24;3.13;;;1.70;;
20478;SDS011;10398;52.490;13.434;2023-05-10T08:28:50;5.07;;;1.73;;
20478;SDS011;10398;52.490;13.434;2023-05-10T08:31:16;4.32;;;1.75;;
20478;SDS011;10398;52.490;13.434;2023-05-10T08:33:43;3.85;;;2.22;;
20478;SDS011;10398;52.490;13.434;2023-05-10T08:36:08;4.23;;;1.77;;
20478;SDS011;10398;52.490;13.434;2023-05-10T08:38:34;3.47;;;2.07;;
20478;SDS011;10398;52.490;13.434;2023-05-10T08:41:00;6.55;;;2.30;;
20478;SDS011;10398;52.490;13.434;2023-05-10T08:43:27;6.47;;;2.92;;
20478;SDS011;10398;52.490;13.434;2023-05-10T08:45:54;6.83;;;2.47;;
20478;SDS011;10398;52.490;13.434;2023-05-10T08:48:21;4.88;;;2.08;;
20478;SDS011;10398;52.490;13.434;2023-05-10T08:50:48;3.40;;;2.08;;
20478;SDS011;10398;52.490;13.434;2023-05-10T08:53:19;2.70;;;1.50;;
20478;SDS011;10398;52.490;13.434;2023-05-10T08:55:49;5.78;;;2.08;;
20478;SDS011;10398;52.490;13.434;2023-05-10T08:58:14;5.68;;;2.42;;
20478;SDS011;10398;52.490;13.434;2023-05-10T09:00:40;4.20;;;2.60;;
20478;SDS011;10398;52.490;13.434;2023-05-10T09:03:06;6.63;;;2.78;;
20478;SDS011;10398;52.490;13.434;2023-05-10T09:05:32;3.70;;;2.28;;
20478;SDS011;10398;52.490;13.434;2023-05-10T09:07:57;4.22;;;2.10;;
20478;SDS011;10398;52.490;13.434;2023-05-10T09:10:25;4.95;;;1.73;;
20478;SDS011;10398;52.490;13.434;2023-05-10T09:12:53;3.28;;;2.25;;
20478;SDS011;10398;52.490;13.434;2023-05-10T09:15:20;6.30;;;2.33;;
20478;SDS011;10398;52.490;13.434;2023-05-10T09:17:46;4.20;;;2.00;;
20478;SDS011;10398;52.490;13.434;2023-05-10T09:20:14;6.25;;;2.72;;
20478;SDS011;10398;52.490;13.434;2023-05-10T09:22:39;4.90;;;1.90;;
20478;SDS011;10398;52.490;13.434;2023-05-10T09:25:09;6.68;;;3.15;;
20478;SDS011;10398;52.490;13.434;2023-05-10T09:27:36;3.33;;;1.90;;
20478;SDS011;10398;52.490;13.434;2023-05-10T09:30:03;5.28;;;2.55;;
20478;SDS011;10398;52.490;13.434;2023-05-10T09:35:13;5.95;;;3.00;;
20478;SDS011;10398;52.490;13.434;2023-05-10T09:37:41;7.75;;;3.50;;
20478;SDS011;10398;52.490;13.434;2023-05-10T09:40:18;4.60;;;2.83;;
20478;SDS011;10398;52.490;13.434;2023-05-10T09:45:24;5.00;;;2.60;;
20478;SDS011;10398;52.490;13.434;2023-05-10T09:47:52;3.65;;;1.80;;
20478;SDS011;10398;52.490;13.434;2023-05-10T09:50:18;4.72;;;1.77;;
20478;SDS011;10398;52.490;13.434;2023-05-10T09:52:49;7.53;;;2.28;;
20478;SDS011;10398;52.490;13.434;2023-05-10T09:58:11;2.70;;;1.58;;
20478;SDS011;10398;52.490;13.434;2023-05-10T10:00:41;2.85;;;1.83;;
20478;SDS011;10398;52.490;13.434;2023-05-10T10:03:42;2.60;;;1.52;;
20478;SDS011;10398;52.490;13.434;2023-05-10T10:06:07;5.40;;;2.00;;
20478;SDS011;10398;52.490;13.434;2023-05-10T10:08:33;3.20;;;1.80;;
20478;SDS011;10398;52.490;13.434;2023-05-10T10:10:59;4.20;;;1.50;;
20478;SDS011;10398;52.490;13.434;2023-05-10T10:13:26;2.75;;;1.70;;
20478;SDS011;10398;52.490;13.434;2023-05-10T10:15:52;5.65;;;1.88;;
20478;SDS011;10398;52.490;13.434;2023-05-10T10:18:19;4.38;;;1.95;;
20478;SDS011;10398;52.490;13.434;2023-05-10T10:20:52;4.70;;;1.90;;
20478;SDS011;10398;52.490;13.434;2023-05-10T10:23:19;2.63;;;1.73;;
20478;SDS011;10398;52.490;13.434;2023-05-10T10:25:44;4.55;;;1.65;;
20478;SDS011;10398;52.490;13.434;2023-05-10T10:28:21;4.38;;;1.75;;
20478;SDS011;10398;52.490;13.434;2023-05-10T10:30:54;3.20;;;1.65;;
20478;SDS011;10398;52.490;13.434;2023-05-10T10:33:33;3.35;;;1.98;;
20478;SDS011;10398;52.490;13.434;2023-05-10T10:36:02;5.38;;;1.80;;
20478;SDS011;10398;52.490;13.434;2023-05-10T10:52:15;3.60;;;1.58;;
20478;SDS011;10398;52.490;13.434;2023-05-10T11:00:17;8.63;;;1.88;;
20478;SDS011;10398;52.490;13.434;2023-05-10T11:02:44;3.70;;;1.60;;
20478;SDS011;10398;52.490;13.434;2023-05-10T11:07:56;4.40;;;1.55;;
20478;SDS011;10398;52.490;13.434;2023-05-10T11:10:23;5.63;;;1.70;;
20478;SDS011;10398;52.490;13.434;2023-05-10T11:13:03;2.42;;;1.40;;
20478;SDS011;10398;52.490;13.434;2023-05-10T11:15:37;3.03;;;1.50;;
20478;SDS011;10398;52.490;13.434;2023-05-10T11:18:17;4.72;;;1.85;;
20478;SDS011;10398;52.490;13.434;2023-05-10T11:20:45;2.75;;;1.80;;
20478;SDS011;10398;52.490;13.434;2023-05-10T11:23:21;5.20;;;1.92;;
20478;SDS011;10398;52.490;13.434;2023-05-10T11:25:47;4.55;;;2.13;;
20478;SDS011;10398;52.490;13.434;2023-05-10T11:28:14;6.03;;;1.80;;
20478;SDS011;10398;52.490;13.434;2023-05-10T11:30:42;4.55;;;2.20;;
20478;SDS011;10398;52.490;13.434;2023-05-10T11:33:09;5.68;;;1.90;;
20478;SDS011;10398;52.490;13.434;2023-05-10T11:35:40;3.42;;;1.90;;
20478;SDS011;10398;52.490;13.434;2023-05-10T11:38:09;5.13;;;1.90;;
20478;SDS011;10398;52.490;13.434;2023-05-10T11:40:36;3.22;;;1.40;;
20478;SDS011;10398;52.490;13.434;2023-05-10T11:43:04;1.85;;;1.17;;
20478;SDS011;10398;52.490;13.434;2023-05-10T11:45:34;3.42;;;1.67;;
20478;SDS011;10398;52.490;13.434;2023-05-10T11:48:01;4.25;;;1.50;;
20478;SDS011;10398;52.490;13.434;2023-05-10T11:50:27;2.50;;;1.75;;
20478;SDS011;10398;52.490;13.434;2023-05-10T11:52:54;4.15;;;1.40;;
20478;SDS011;10398;52.490;13.434;2023-05-10T11:55:20;2.95;;;1.48;;
20478;SDS011;10398;52.490;13.434;2023-05-10T11:57:46;3.33;;;1.33;;
20478;SDS011;10398;52.490;13.434;2023-05-10T12:00:13;3.22;;;1.90;;
20478;SDS011;10398;52.490;13.434;2023-05-10T12:02:39;2.58;;;1.33;;
20478;SDS011;10398;52.490;13.434;2023-05-10T12:05:05;2.83;;;1.50;;
20478;SDS011;10398;52.490;13.434;2023-05-10T12:07:32;3.92;;;1.50;;
20478;SDS011;10398;52.490;13.434;2023-05-10T12:10:07;4.25;;;1.52;;
20478;SDS011;10398;52.490;13.434;2023-05-10T12:12:40;2.60;;;1.40;;
20478;SDS011;10398;52.490;13.434;2023-05-10T12:15:17;5.30;;;1.77;;
20478;SDS011;10398;52.490;13.434;2023-05-10T12:17:44;5.47;;;1.95;;
20478;SDS011;10398;52.490;13.434;2023-05-10T12:20:15;3.22;;;1.85;;
20478;SDS011;10398;52.490;13.434;2023-05-10T12:22:44;2.28;;;1.42;;
20478;SDS011;10398;52.490;13.434;2023-05-10T12:25:21;3.35;;;1.90;;
20478;SDS011;10398;52.490;13.434;2023-05-10T12:27:52;2.88;;;1.50;;
20478;SDS011;10398;52.490;13.434;2023-05-10T12:30:23;1.45;;;1.10;;
20478;SDS011;10398;52.490;13.434;2023-05-10T12:32:51;3.83;;;1.63;;
20478;SDS011;10398;52.490;13.434;2023-05-10T12:35:17;2.95;;;1.45;;
20478;SDS011;10398;52.490;13.434;2023-05-10T12:37:46;4.35;;;1.67;;
20478;SDS011;10398;52.490;13.434;2023-05-10T12:40:13;2.30;;;1.55;;
20478;SDS011;10398;52.490;13.434;2023-05-10T12:42:39;4.65;;;1.75;;
20478;SDS011;10398;52.490;13.434;2023-05-10T12:45:05;3.03;;;1.85;;
20478;SDS011;10398;52.490;13.434;2023-05-10T12:47:32;4.47;;;1.67;;
20478;SDS011;10398;52.490;13.434;2023-05-10T12:49:58;2.97;;;1.48;;
20478;SDS011;10398;52.490;13.434;2023-05-10T12:52:25;3.03;;;1.92;;
20478;SDS011;10398;52.490;13.434;2023-05-10T12:54:51;3.53;;;1.50;;
20478;SDS011;10398;52.490;13.434;2023-05-10T12:57:17;3.67;;;1.77;;
20478;SDS011;10398;52.490;13.434;2023-05-10T12:59:43;2.25;;;1.58;;
20478;SDS011;10398;52.490;13.434;2023-05-10T13:02:09;2.67;;;1.60;;
20478;SDS011;10398;52.490;13.434;2023-05-10T13:04:35;2.95;;;1.30;;
20478;SDS011;10398;52.490;13.434;2023-05-10T13:07:04;4.88;;;1.40;;
20478;SDS011;10398;52.490;13.434;2023-05-10T13:09:33;6.30;;;1.75;;
20478;SDS011;10398;52.490;13.434;2023-05-10T13:11:59;3.60;;;1.83;;
20478;SDS011;10398;52.490;13.434;2023-05-10T13:14:24;1.70;;;1.30;;
20478;SDS011;10398;52.490;13.434;2023-05-10T13:16:50;1.90;;;1.20;;
20478;SDS011;10398;52.490;13.434;2023-05-10T13:19:16;3.30;;;1.80;;
20478;SDS011;10398;52.490;13.434;2023-05-10T13:21:42;6.32;;;1.98;;
20478;SDS011;10398;52.490;13.434;2023-05-10T13:24:09;4.50;;;1.30;;
20478;SDS011;10398;52.490;13.434;2023-05-10T13:26:36;3.53;;;2.20;;
20478;SDS011;10398;52.490;13.434;2023-05-10T13:29:02;3.60;;;1.60;;
20478;SDS011;10398;52.490;13.434;2023-05-10T13:31:28;2.92;;;1.50;;
20478;SDS011;10398;52.490;13.434;2023-05-10T13:33:53;2.83;;;1.80;;
20478;SDS011;10398;52.490;13.434;2023-05-10T13:36:19;2.38;;;1.50;;
20478;SDS011;10398;52.490;13.434;2023-05-10T13:38:45;2.63;;;1.60;;
20478;SDS011;10398;52.490;13.434;2023-05-10T13:41:11;2.53;;;1.50;;
20478;SDS011;10398;52.490;13.434;2023-05-10T13:43:36;2.28;;;1.63;;
20478;SDS011;10398;52.490;13.434;2023-05-10T13:46:02;2.13;;;1.40;;
20478;SDS011;10398;52.490;13.434;2023-05-10T13:48:28;3.00;;;1.50;;
20478;SDS011;10398;52.490;13.434;2023-05-10T13:50:53;1.92;;;1.25;;
20478;SDS011;10398;52.490;13.434;2023-05-10T13:53:19;2.85;;;2.03;;
20478;SDS011;10398;52.490;13.434;2023-05-10T13:55:45;3.05;;;1.55;;
20478;SDS011;10398;52.490;13.434;2023-05-10T13:58:12;3.20;;;1.17;;
20478;SDS011;10398;52.490;13.434;2023-05-10T14:00:37;2.35;;;1.35;;
20478;SDS011;10398;52.490;13.434;2023-05-10T14:03:03;3.28;;;1.60;;
20478;SDS011;10398;52.490;13.434;2023-05-10T14:05:30;2.80;;;1.50;;
20478;SDS011;10398;52.490;13.434;2023-05-10T14:07:56;3.90;;;1.60;;
20478;SDS011;10398;52.490;13.434;2023-05-10T14:10:22;6.43;;;1.60;;
20478;SDS011;10398;52.490;13.434;2023-05-10T14:12:47;1.92;;;1.40;;
20478;SDS011;10398;52.490;13.434;2023-05-10T14:15:13;1.70;;;1.30;;
20478;SDS011;10398;52.490;13.434;2023-05-10T14:17:38;7.50;;;1.60;;
20478;SDS011;10398;52.490;13.434;2023-05-10T14:20:04;3.10;;;1.70;;
20478;SDS011;10398;52.490;13.434;2023-05-10T14:22:30;4.43;;;1.80;;
20478;SDS011;10398;52.490;13.434;2023-05-10T14:24:56;2.17;;;1.40;;
20478;SDS011;10398;52.490;13.434;2023-05-10T14:27:23;3.53;;;1.70;;
20478;SDS011;10398;52.490;13.434;2023-05-10T14:29:48;3.13;;;1.65;;
20478;SDS011;10398;52.490;13.434;2023-05-10T14:32:14;2.42;;;1.45;;
20478;SDS011;10398;52.490;13.434;2023-05-10T14:34:40;1.85;;;1.35;;
20478;SDS011;10398;52.490;13.434;2023-05-10T14:37:05;2.20;;;1.40;;
20478;SDS011;10398;52.490;13.434;2023-05-10T14:39:31;2.70;;;1.20;;
20478;SDS011;10398;52.490;13.434;2023-05-10T14:41:58;2.30;;;1.40;;
20478;SDS011;10398;52.490;13.434;2023-05-10T14:44:23;1.75;;;1.10;;
20478;SDS011;10398;52.490;13.434;2023-05-10T14:46:50;2.42;;;1.63;;
20478;SDS011;10398;52.490;13.434;2023-05-10T14:49:15;3.25;;;1.30;;
20478;SDS011;10398;52.490;13.434;2023-05-10T14:51:41;5.28;;;1.70;;
20478;SDS011;10398;52.490;13.434;2023-05-10T14:54:07;2.67;;;1.70;;
20478;SDS011;10398;52.490;13.434;2023-05-10T14:56:33;1.58;;;1.20;;
20478;SDS011;10398;52.490;13.434;2023-05-10T14:58:58;2.63;;;1.27;;
20478;SDS011;10398;52.490;13.434;2023-05-10T15:01:25;3.70;;;1.70;;
20478;SDS011;10398;52.490;13.434;2023-05-10T15:03:51;8.60;;;3.17;;
20478;SDS011;10398;52.490;13.434;2023-05-10T15:06:16;3.10;;;1.90;;
20478;SDS011;10398;52.490;13.434;2023-05-10T15:08:42;2.22;;;1.50;;
20478;SDS011;10398;52.490;13.434;2023-05-10T15:11:08;3.85;;;2.00;;
20478;SDS011;10398;52.490;13.434;2023-05-10T15:13:33;3.55;;;1.50;;
20478;SDS011;10398;52.490;13.434;2023-05-10T15:15:59;6.43;;;2.13;;
20478;SDS011;10398;52.490;13.434;2023-05-10T15:18:25;7.10;;;3.50;;
20478;SDS011;10398;52.490;13.434;2023-05-10T15:20:51;4.20;;;2.30;;